Time;durP1;ratioP1;P1;durP2;ratioP2;P2;SDS_P1;SDS_P2;PMS_P1;PMS_P2;Temp;Humidity;BMP_temperature;BMP_pressure;BME280_temperature;BME280_humidity;BME280_pressure;Samples;Min_cycle;Max_cycle;Signal;HPM_P1;HPM_P2
2022/11/08 00:03:40;;;;;;;;;;;;;;;;;;4899871;29;19931;-86
2022/11/08 00:14:18;;;;;;;;;;;;;;;;;;4899706;29;19992;-87
2022/11/08 00:16:43;;;;;;;;;;;;;;;;;;4899452;29;19923;-87
2022/11/08 00:19:09;;;;;;;;;;;;;;;;;;4882634;29;19916;-87
2022/11/08 00:21:34;;;;;;;;;;;;;;;;;;4899654;29;20295;-87
2022/11/08 00:23:59;;;;;;;;;;;;;;;;;;4899100;29;20482;-88
2022/11/08 00:26:26;;;;;;;;;;;;;;;;;;4899203;29;20298;-87
2022/11/08 00:28:51;;;;;;;;;;;;;;;;;;4899070;29;19924;-86
2022/11/08 00:31:16;;;;;;;;;;;;;;;;;;4899436;29;19923;-88
2022/11/08 00:33:42;;;;;;;;;;;;;;;;;;4899399;29;20291;-88
2022/11/08 00:36:07;;;;;;;;;;;;;;;;;;4899211;29;20669;-88
2022/11/08 00:38:33;;;;;;;;;;;;;;;;;;4899835;29;19919;-89
2022/11/08 00:40:58;;;;;;;;;;;;;;;;;;4899480;29;19981;-87
2022/11/08 00:43:24;;;;;;;;;;;;;;;;;;4913996;29;19923;-88
2022/11/08 00:45:49;;;;;;;;;;;;;;;;;;4899623;29;20401;-88
2022/11/08 00:48:14;;;;;;;;;;;;;;;;;;4899090;29;20299;-88
2022/11/08 00:50:40;;;;;;;;;;;;;;;;;;4899144;29;20022;-88
2022/11/08 00:53:05;;;;;;;;;;;;;;;;;;4899396;29;19924;-88
2022/11/08 00:55:31;;;;;;;;;;;;;;;;;;4899081;29;19923;-89
2022/11/08 00:57:56;;;;;;;;;;;;;;;;;;4921469;29;19930;-87
2022/11/08 01:00:22;;;;;;;;;;;;;;;;;;4924212;29;19923;-88
2022/11/08 01:02:47;;;;;;;;;;;;;;;;;;4909232;29;19927;-87
2022/11/08 01:05:13;;;;;;;;;;;;;;;;;;4903242;29;19915;-88
2022/11/08 01:07:38;;;;;;;;;;;;;;;;;;4899503;29;19920;-87
2022/11/08 01:10:04;;;;;;;;;;;;;;;;;;4898980;29;19979;-87
2022/11/08 01:12:30;;;;;;;;;;;;;;;;;;4898754;29;19924;-88
2022/11/08 01:14:55;;;;;;;;;;;;;;;;;;4898598;29;20018;-87
2022/11/08 01:17:21;;;;;;;;;;;;;;;;;;4898445;29;19920;-86
2022/11/08 01:19:46;;;;;;;;;;;;;;;;;;4897065;29;19919;-88
2022/11/08 01:22:11;;;;;;;;;;;;;;;;;;4898182;29;19926;-88
2022/11/08 01:24:37;;;;;;;;;;;;;;;;;;4897272;29;20561;-86
2022/11/08 01:27:02;;;;;;;;;;;;;;;;;;4896996;29;19920;-88
2022/11/08 01:29:28;;;;;;;;;;;;;;;;;;4898357;29;19966;-87
2022/11/08 01:31:53;;;;;;;;;;;;;;;;;;4898201;29;20413;-89
2022/11/08 01:34:19;;;;;;;;;;;;;;;;;;4898114;29;19927;-89
2022/11/08 01:36:44;;;;;;;;;;;;;;;;;;4896774;29;19919;-88
2022/11/08 01:39:10;;;;;;;;;;;;;;;;;;4897849;29;19975;-87
2022/11/08 01:41:35;;;;;;;;;;;;;;;;;;4898198;29;20292;-88
2022/11/08 01:44:01;;;;;;;;;;;;;;;;;;4897940;29;19919;-88
2022/11/08 01:46:31;;;;;;;;;;;;;;;;;;4897956;29;20037;-89
2022/11/08 01:49:03;;;;;;;;;;;;;;;;;;4897823;29;20277;-88
2022/11/08 01:51:33;;;;;;;;;;;;;;;;;;4897911;29;19923;-87
2022/11/08 01:54:00;;;;;;;;;;;;;;;;;;4897613;29;19927;-88
2022/11/08 01:56:25;;;;;;;;;;;;;;;;;;4904801;29;19923;-89
2022/11/08 01:58:53;;;;;;;;;;;;;;;;;;4916288;29;19975;-88
2022/11/08 02:01:19;;;;;;;;;;;;;;;;;;4916734;29;20018;-88
2022/11/08 02:03:45;;;;;;;;;;;;;;;;;;4916401;29;20419;-88
2022/11/08 02:06:11;;;;;;;;;;;;;;;;;;4916174;29;20017;-88
2022/11/08 02:08:38;;;;;;;;;;;;;;;;;;4898906;29;20018;-88
2022/11/08 02:11:04;;;;;;;;;;;;;;;;;;4899282;29;19969;-88
2022/11/08 02:13:30;;;;;;;;;;;;;;;;;;4916416;29;19927;-87
2022/11/08 02:15:56;;;;;;;;;;;;;;;;;;4914711;29;20373;-90
2022/11/08 02:18:24;;;;;;;;;;;;;;;;;;4916291;29;19922;-88
2022/11/08 02:20:49;;;;;;;;;;;;;;;;;;4917000;29;19990;-88
2022/11/08 02:23:14;;;;;;;;;;;;;;;;;;4914948;29;19974;-88
2022/11/08 02:25:40;;;;;;;;;;;;;;;;;;4916094;29;20389;-88
2022/11/08 02:28:05;;;;;;;;;;;;;;;;;;4915753;29;19923;-87
2022/11/08 02:30:34;;;;;;;;;;;;;;;;;;4916019;29;19928;-88
2022/11/08 02:33:12;;;;;;;;;;;;;;;;;;4915851;29;19923;-88
2022/11/08 02:35:38;;;;;;;;;;;;;;;;;;4915875;29;20383;-89
2022/11/08 02:38:03;;;;;;;;;;;;;;;;;;4915617;29;20021;-88
2022/11/08 02:40:29;;;;;;;;;;;;;;;;;;4899043;29;20017;-87
2022/11/08 02:42:54;;;;;;;;;;;;;;;;;;4915671;29;20295;-88
2022/11/08 02:45:20;;;;;;;;;;;;;;;;;;4915802;29;20038;-88
2022/11/08 02:47:45;;;;;;;;;;;;;;;;;;4915549;29;19927;-88
2022/11/08 02:50:10;;;;;;;;;;;;;;;;;;4915654;29;19923;-88
2022/11/08 02:52:36;;;;;;;;;;;;;;;;;;4915931;29;19931;-88
2022/11/08 02:55:01;;;;;;;;;;;;;;;;;;4898935;29;19927;-89
2022/11/08 02:57:27;;;;;;;;;;;;;;;;;;4900529;29;20010;-89
2022/11/08 02:59:52;;;;;;;;;;;;;;;;;;4901598;29;19927;-87
2022/11/08 03:02:18;;;;;;;;;;;;;;;;;;4914541;29;19919;-87
2022/11/08 03:04:43;;;;;;;;;;;;;;;;;;4914517;29;19919;-89
2022/11/08 03:07:08;;;;;;;;;;;;;;;;;;4914275;29;19919;-87
2022/11/08 03:09:34;;;;;;;;;;;;;;;;;;4915692;29;20406;-87
2022/11/08 03:11:59;;;;;;;;;;;;;;;;;;4914176;29;19946;-87
2022/11/08 03:14:25;;;;;;;;;;;;;;;;;;4914215;29;19919;-88
2022/11/08 03:16:50;;;;;;;;;;;;;;;;;;4915685;29;19919;-88
2022/11/08 03:19:15;;;;;;;;;;;;;;;;;;4917291;29;19919;-88
2022/11/08 03:21:41;;;;;;;;;;;;;;;;;;4918055;29;20367;-88
2022/11/08 03:24:07;;;;;;;;;;;;;;;;;;4919035;29;19923;-88
2022/11/08 03:26:32;;;;;;;;;;;;;;;;;;4917807;29;20427;-88
2022/11/08 03:28:57;;;;;;;;;;;;;;;;;;4918905;29;19937;-86
2022/11/08 03:31:23;;;;;;;;;;;;;;;;;;4917842;29;19919;-87
2022/11/08 03:33:48;;;;;;;;;;;;;;;;;;4919150;29;20401;-87
2022/11/08 03:36:14;;;;;;;;;;;;;;;;;;4918978;29;19927;-88
2022/11/08 03:38:39;;;;;;;;;;;;;;;;;;4917863;29;19923;-86
2022/11/08 03:41:05;;;;;;;;;;;;;;;;;;4917709;29;19922;-89
2022/11/08 03:43:30;;;;;;;;;;;;;;;;;;4917548;29;20372;-88
2022/11/08 03:45:55;;;;;;;;;;;;;;;;;;4918763;29;20045;-88
2022/11/08 03:48:22;;;;;;;;;;;;;;;;;;4918581;29;19926;-90
2022/11/08 03:50:48;;;;;;;;;;;;;;;;;;4918741;29;19966;-87
2022/11/08 03:53:13;;;;;;;;;;;;;;;;;;4918450;29;20391;-89
2022/11/08 03:55:38;;;;;;;;;;;;;;;;;;4917704;29;19919;-88
2022/11/08 03:58:04;;;;;;;;;;;;;;;;;;4904565;29;19930;-88
2022/11/08 04:00:29;;;;;;;;;;;;;;;;;;4867734;29;20360;-88
2022/11/08 04:02:59;;;;;;;;;;;;;;;;;;4882747;29;19987;-88
2022/11/08 04:05:25;;;;;;;;;;;;;;;;;;4899386;29;19919;-88
2022/11/08 04:07:51;;;;;;;;;;;;;;;;;;4882920;29;20007;-89
2022/11/08 04:10:16;;;;;;;;;;;;;;;;;;4900614;29;19978;-87
2022/11/08 04:15:27;;;;;;;;;;;;;;;;;;4899879;29;20001;-89
2022/11/08 04:23:22;;;;;;;;;;;;;;;;;;4899664;29;19932;-88
2022/11/08 04:25:52;;;;;;;;;;;;;;;;;;4899434;29;19923;-88
2022/11/08 04:28:18;;;;;;;;;;;;;;;;;;4898028;29;20654;-87
2022/11/08 04:30:43;;;;;;;;;;;;;;;;;;4899289;29;19931;-89
2022/11/08 04:33:08;;;;;;;;;;;;;;;;;;4899900;29;19930;-89
2022/11/08 04:35:36;;;;;;;;;;;;;;;;;;4902850;29;19916;-87
2022/11/08 04:38:01;;;;;;;;;;;;;;;;;;4902049;29;19927;-88
2022/11/08 04:40:28;;;;;;;;;;;;;;;;;;4898284;29;19915;-87
2022/11/08 04:42:54;;;;;;;;;;;;;;;;;;4899355;29;20380;-90
2022/11/08 04:45:19;;;;;;;;;;;;;;;;;;4901593;29;19928;-88
2022/11/08 04:47:45;;;;;;;;;;;;;;;;;;4883539;29;19927;-88
2022/11/08 04:50:11;;;;;;;;;;;;;;;;;;4910277;29;19923;-88
2022/11/08 04:52:36;;;;;;;;;;;;;;;;;;4912302;29;20065;-88
2022/11/08 04:55:02;;;;;;;;;;;;;;;;;;4904748;29;19928;-88
2022/11/08 04:57:27;;;;;;;;;;;;;;;;;;4907324;29;19923;-87
2022/11/08 04:59:53;;;;;;;;;;;;;;;;;;4901135;29;19990;-88
2022/11/08 05:02:18;;;;;;;;;;;;;;;;;;4918679;29;19929;-88
2022/11/08 05:04:44;;;;;;;;;;;;;;;;;;4932124;29;19949;-87
2022/11/08 05:07:09;;;;;;;;;;;;;;;;;;4920538;29;19923;-87
2022/11/08 05:09:34;;;;;;;;;;;;;;;;;;4916723;29;19926;-87
2022/11/08 05:12:00;;;;;;;;;;;;;;;;;;4911715;29;19925;-88
2022/11/08 05:14:25;;;;;;;;;;;;;;;;;;4919239;29;19927;-87
2022/11/08 05:16:51;;;;;;;;;;;;;;;;;;4918616;29;19990;-88
2022/11/08 05:23:22;;;;;;;;;;;;;;;;;;4903095;29;19926;-88
2022/11/08 05:24:45;;;;;;;;;;;;;;;;;;4900833;29;19926;-86
2022/11/08 05:27:11;;;;;;;;;;;;;;;;;;4898292;29;19920;-86
2022/11/08 05:29:36;;;;;;;;;;;;;;;;;;4898806;29;20194;-87
2022/11/08 05:32:02;;;;;;;;;;;;;;;;;;4898695;29;19923;-87
2022/11/08 05:34:28;;;;;;;;;;;;;;;;;;4898573;29;19930;-85
2022/11/08 05:36:54;;;;;;;;;;;;;;;;;;4881781;29;19924;-86
2022/11/08 05:39:19;;;;;;;;;;;;;;;;;;4898587;29;20415;-85
2022/11/08 05:41:44;;;;;;;;;;;;;;;;;;4897629;29;19919;-85
2022/11/08 05:44:10;;;;;;;;;;;;;;;;;;4897767;29;19919;-86
2022/11/08 05:46:35;;;;;;;;;;;;;;;;;;4898224;29;19927;-86
2022/11/08 05:49:01;;;;;;;;;;;;;;;;;;4898261;29;20320;-86
2022/11/08 05:51:26;;;;;;;;;;;;;;;;;;4898173;29;19919;-86
2022/11/08 05:53:52;;;;;;;;;;;;;;;;;;4881232;29;19926;-86
2022/11/08 05:56:17;;;;;;;;;;;;;;;;;;4897849;29;20014;-86
2022/11/08 05:58:43;;;;;;;;;;;;;;;;;;4898220;29;20280;-86
2022/11/08 06:01:10;;;;;;;;;;;;;;;;;;4881086;29;20379;-85
2022/11/08 06:03:35;;;;;;;;;;;;;;;;;;4898079;29;19919;-85
2022/11/08 06:06:02;;;;;;;;;;;;;;;;;;4881233;29;19984;-85
2022/11/08 06:08:27;;;;;;;;;;;;;;;;;;4897646;29;19920;-86
2022/11/08 06:10:53;;;;;;;;;;;;;;;;;;4898031;29;19945;-86
2022/11/08 06:13:18;;;;;;;;;;;;;;;;;;4897632;29;19916;-87
2022/11/08 06:15:43;;;;;;;;;;;;;;;;;;4897759;29;19925;-86
2022/11/08 06:18:09;;;;;;;;;;;;;;;;;;4897723;29;19938;-86
2022/11/08 06:20:35;;;;;;;;;;;;;;;;;;4897526;29;20291;-85
2022/11/08 06:23:00;;;;;;;;;;;;;;;;;;4880989;29;19931;-84
2022/11/08 06:25:26;;;;;;;;;;;;;;;;;;4897318;29;19923;-85
2022/11/08 06:27:51;;;;;;;;;;;;;;;;;;4897389;29;19928;-85
2022/11/08 06:30:16;;;;;;;;;;;;;;;;;;4897216;29;19919;-85
2022/11/08 06:32:42;;;;;;;;;;;;;;;;;;4897330;29;19919;-87
2022/11/08 06:35:08;;;;;;;;;;;;;;;;;;4897426;29;19920;-85
2022/11/08 06:37:33;;;;;;;;;;;;;;;;;;4897241;29;19926;-86
2022/11/08 06:39:58;;;;;;;;;;;;;;;;;;4897362;29;19927;-86
2022/11/08 06:42:24;;;;;;;;;;;;;;;;;;4880274;29;19977;-86
2022/11/08 06:44:51;;;;;;;;;;;;;;;;;;4897235;29;20032;-84
2022/11/08 06:47:16;;;;;;;;;;;;;;;;;;4880635;29;19923;-86
2022/11/08 06:49:42;;;;;;;;;;;;;;;;;;4897263;29;19924;-84
2022/11/08 06:52:07;;;;;;;;;;;;;;;;;;4897304;29;19930;-87
2022/11/08 06:54:32;;;;;;;;;;;;;;;;;;4896774;29;19923;-86
2022/11/08 06:57:01;;;;;;;;;;;;;;;;;;4897245;29;20389;-87
2022/11/08 06:59:26;;;;;;;;;;;;;;;;;;4897015;29;19963;-86
2022/11/08 07:01:52;;;;;;;;;;;;;;;;;;4897146;29;20045;-86
2022/11/08 07:04:17;;;;;;;;;;;;;;;;;;4897018;29;19927;-86
2022/11/08 07:06:43;;;;;;;;;;;;;;;;;;4896945;29;19924;-84
2022/11/08 07:09:09;;;;;;;;;;;;;;;;;;4897050;29;20388;-87
2022/11/08 07:11:35;;;;;;;;;;;;;;;;;;4896949;29;19951;-84
2022/11/08 07:14:01;;;;;;;;;;;;;;;;;;4897065;29;19965;-86
2022/11/08 07:16:26;;;;;;;;;;;;;;;;;;4896791;29;20325;-87
2022/11/08 07:18:54;;;;;;;;;;;;;;;;;;4897061;29;19920;-86
2022/11/08 07:21:20;;;;;;;;;;;;;;;;;;4896744;29;19924;-84
2022/11/08 07:23:47;;;;;;;;;;;;;;;;;;4896937;29;20018;-84
2022/11/08 07:26:13;;;;;;;;;;;;;;;;;;4880196;29;20295;-83
2022/11/08 07:28:38;;;;;;;;;;;;;;;;;;4896467;29;19923;-85
2022/11/08 07:31:04;;;;;;;;;;;;;;;;;;4896974;29;20387;-85
2022/11/08 07:33:29;;;;;;;;;;;;;;;;;;4896618;29;19967;-85
2022/11/08 07:35:55;;;;;;;;;;;;;;;;;;4896814;29;20368;-85
2022/11/08 07:38:21;;;;;;;;;;;;;;;;;;4896971;29;19923;-85
2022/11/08 07:40:46;;;;;;;;;;;;;;;;;;4896812;29;19930;-85
2022/11/08 07:43:12;;;;;;;;;;;;;;;;;;4896885;29;19920;-85
2022/11/08 07:45:37;;;;;;;;;;;;;;;;;;4896508;29;20021;-87
2022/11/08 07:48:04;;;;;;;;;;;;;;;;;;4879962;29;19975;-85
2022/11/08 07:50:30;;;;;;;;;;;;;;;;;;4896508;29;19919;-87
2022/11/08 07:52:57;;;;;;;;;;;;;;;;;;4896914;29;19980;-86
2022/11/08 07:55:22;;;;;;;;;;;;;;;;;;4879934;29;19971;-84
2022/11/08 07:57:48;;;;;;;;;;;;;;;;;;4895612;29;19954;-85
2022/11/08 08:00:14;;;;;;;;;;;;;;;;;;4896729;29;19926;-84
2022/11/08 08:02:39;;;;;;;;;;;;;;;;;;4896361;29;19927;-86
2022/11/08 08:05:05;;;;;;;;;;;;;;;;;;4879968;29;19920;-86
2022/11/08 08:07:30;;;;;;;;;;;;;;;;;;4899729;29;19919;-85
2022/11/08 08:09:56;;;;;;;;;;;;;;;;;;4899963;29;19931;-85
2022/11/08 08:12:21;;;;;;;;;;;;;;;;;;4899928;29;19920;-85
2022/11/08 08:14:47;;;;;;;;;;;;;;;;;;4899914;29;19975;-86
2022/11/08 08:17:12;;;;;;;;;;;;;;;;;;4899915;29;20041;-84
2022/11/08 08:19:38;;;;;;;;;;;;;;;;;;4899606;29;19925;-85
2022/11/08 08:22:03;;;;;;;;;;;;;;;;;;4883009;29;19959;-87
2022/11/08 08:24:28;;;;;;;;;;;;;;;;;;4899798;29;19924;-84
2022/11/08 08:26:54;;;;;;;;;;;;;;;;;;4882616;29;19923;-83
2022/11/08 08:29:20;;;;;;;;;;;;;;;;;;4899549;29;19927;-84
2022/11/08 08:31:45;;;;;;;;;;;;;;;;;;4899412;29;20010;-84
2022/11/08 08:34:10;;;;;;;;;;;;;;;;;;4899682;29;19919;-84
2022/11/08 08:36:36;;;;;;;;;;;;;;;;;;4899301;29;20376;-84
2022/11/08 08:39:02;;;;;;;;;;;;;;;;;;4882673;29;20380;-85
2022/11/08 08:41:27;;;;;;;;;;;;;;;;;;4899387;29;19926;-86
2022/11/08 08:43:53;;;;;;;;;;;;;;;;;;4899176;29;19927;-84
2022/11/08 08:46:19;;;;;;;;;;;;;;;;;;4899267;29;20056;-86
2022/11/08 08:48:44;;;;;;;;;;;;;;;;;;4899094;29;20006;-83
2022/11/08 08:51:10;;;;;;;;;;;;;;;;;;4899675;29;20018;-86
2022/11/08 08:53:35;;;;;;;;;;;;;;;;;;4899760;29;19970;-88
2022/11/08 08:56:02;;;;;;;;;;;;;;;;;;4898206;29;19919;-84
2022/11/08 08:58:28;;;;;;;;;;;;;;;;;;4899729;29;19923;-87
2022/11/08 09:00:53;;;;;;;;;;;;;;;;;;4899055;29;20398;-86
2022/11/08 09:03:19;;;;;;;;;;;;;;;;;;4899303;29;20407;-86
2022/11/08 09:05:45;;;;;;;;;;;;;;;;;;4898995;29;19920;-86
2022/11/08 09:08:11;;;;;;;;;;;;;;;;;;4899455;29;19920;-87
2022/11/08 09:10:37;;;;;;;;;;;;;;;;;;4901036;29;19931;-87
2022/11/08 09:13:03;;;;;;;;;;;;;;;;;;4922108;29;19979;-84
2022/11/08 09:15:28;;;;;;;;;;;;;;;;;;4910806;29;19924;-87
2022/11/08 09:17:54;;;;;;;;;;;;;;;;;;4922490;29;20363;-87
2022/11/08 09:20:19;;;;;;;;;;;;;;;;;;4921823;29;20322;-86
2022/11/08 09:22:45;;;;;;;;;;;;;;;;;;4917654;29;19983;-88
2022/11/08 09:25:10;;;;;;;;;;;;;;;;;;4900788;29;20324;-86
2022/11/08 09:27:36;;;;;;;;;;;;;;;;;;4917313;29;19977;-87
2022/11/08 09:30:01;;;;;;;;;;;;;;;;;;4917272;29;19923;-86
2022/11/08 09:32:27;;;;;;;;;;;;;;;;;;4917515;29;19974;-88
2022/11/08 09:34:54;;;;;;;;;;;;;;;;;;4917255;29;19927;-87
2022/11/08 09:37:19;;;;;;;;;;;;;;;;;;4917212;29;19975;-88
2022/11/08 09:39:45;;;;;;;;;;;;;;;;;;4917235;29;19923;-88
2022/11/08 09:42:10;;;;;;;;;;;;;;;;;;4917210;29;20424;-86
2022/11/08 09:44:35;;;;;;;;;;;;;;;;;;4917200;29;19952;-87
2022/11/08 09:47:03;;;;;;;;;;;;;;;;;;4916898;29;19919;-88
2022/11/08 09:49:32;;;;;;;;;;;;;;;;;;4917228;29;19923;-89
2022/11/08 09:51:59;;;;;;;;;;;;;;;;;;4916924;29;19959;-87
2022/11/08 09:54:36;;;;;;;;;;;;;;;;;;4917243;29;19923;-87
2022/11/08 09:57:04;;;;;;;;;;;;;;;;;;4916872;29;19919;-88
2022/11/08 09:59:41;;;;;;;;;;;;;;;;;;4916886;29;19926;-86
2022/11/08 10:02:15;;;;;;;;;;;;;;;;;;4916955;29;19968;-84
2022/11/08 10:04:40;;;;;;;;;;;;;;;;;;4916769;29;20035;-90
2022/11/08 10:07:18;;;;;;;;;;;;;;;;;;4916743;29;20033;-85
2022/11/08 10:09:46;;;;;;;;;;;;;;;;;;4916916;29;19919;-88
2022/11/08 10:12:15;;;;;;;;;;;;;;;;;;4899539;29;20010;-85
2022/11/08 10:14:55;;;;;;;;;;;;;;;;;;4899748;29;20370;-86
2022/11/08 10:17:24;;;;;;;;;;;;;;;;;;4916480;29;19958;-86
2022/11/08 10:19:55;;;;;;;;;;;;;;;;;;4916745;29;19919;-86
2022/11/08 10:22:23;;;;;;;;;;;;;;;;;;4916613;29;19915;-87
2022/11/08 10:25:04;;;;;;;;;;;;;;;;;;4916516;29;19919;-87
2022/11/08 10:27:38;;;;;;;;;;;;;;;;;;4916138;29;19927;-85
2022/11/08 10:30:05;;;;;;;;;;;;;;;;;;4916235;29;19979;-87
2022/11/08 10:32:32;;;;;;;;;;;;;;;;;;4899500;29;19919;-87
2022/11/08 10:35:15;;;;;;;;;;;;;;;;;;4916442;29;19923;-86
2022/11/08 10:37:42;;;;;;;;;;;;;;;;;;4916388;29;19919;-85
2022/11/08 10:40:28;;;;;;;;;;;;;;;;;;4899310;29;20359;-86
2022/11/08 10:42:56;;;;;;;;;;;;;;;;;;4886615;29;20405;-86
2022/11/08 10:45:22;;;;;;;;;;;;;;;;;;4916205;29;20387;-86
2022/11/08 10:47:47;;;;;;;;;;;;;;;;;;4899290;29;19923;-88
2022/11/08 10:50:21;;;;;;;;;;;;;;;;;;4915897;29;20391;-87
2022/11/08 10:52:50;;;;;;;;;;;;;;;;;;4916319;29;20383;-87
2022/11/08 10:55:23;;;;;;;;;;;;;;;;;;4916058;29;19943;-85
2022/11/08 10:57:48;;;;;;;;;;;;;;;;;;4915883;29;20137;-84
2022/11/08 11:00:14;;;;;;;;;;;;;;;;;;4916007;29;20400;-86
2022/11/08 11:02:39;;;;;;;;;;;;;;;;;;4916154;29;19950;-84
2022/11/08 11:05:17;;;;;;;;;;;;;;;;;;4914467;29;19961;-86
2022/11/08 11:07:55;;;;;;;;;;;;;;;;;;4915793;29;19927;-86
2022/11/08 11:10:28;;;;;;;;;;;;;;;;;;4915962;29;19919;-85
2022/11/08 11:12:57;;;;;;;;;;;;;;;;;;4915833;29;20384;-85
2022/11/08 11:15:22;;;;;;;;;;;;;;;;;;4915681;29;20436;-85
2022/11/08 11:17:48;;;;;;;;;;;;;;;;;;4915957;29;19967;-85
2022/11/08 11:20:22;;;;;;;;;;;;;;;;;;4898752;29;19954;-87
2022/11/08 11:22:48;;;;;;;;;;;;;;;;;;4915928;29;19923;-85
2022/11/08 11:25:15;;;;;;;;;;;;;;;;;;4915737;29;20003;-85
2022/11/08 11:27:41;;;;;;;;;;;;;;;;;;4898502;29;19938;-85
2022/11/08 11:30:16;;;;;;;;;;;;;;;;;;4915776;29;20303;-85
2022/11/08 11:32:53;;;;;;;;;;;;;;;;;;4915786;29;20017;-87
2022/11/08 11:35:18;;;;;;;;;;;;;;;;;;4898875;29;20269;-85
2022/11/08 11:37:46;;;;;;;;;;;;;;;;;;4915904;29;19926;-85
2022/11/08 11:40:26;;;;;;;;;;;;;;;;;;4898795;29;19920;-86
2022/11/08 11:42:54;;;;;;;;;;;;;;;;;;4919184;29;19919;-86
2022/11/08 11:45:38;;;;;;;;;;;;;;;;;;4919516;29;19982;-88
2022/11/08 11:48:09;;;;;;;;;;;;;;;;;;4919190;29;19923;-87
2022/11/08 11:50:36;;;;;;;;;;;;;;;;;;4919111;29;19935;-84
2022/11/08 11:53:37;;;;;;;;;;;;;;;;;;4919160;29;19923;-87
2022/11/08 11:56:04;;;;;;;;;;;;;;;;;;4908948;29;19924;-85
2022/11/08 11:58:46;;;;;;;;;;;;;;;;;;4902297;29;19941;-85
2022/11/08 12:01:18;;;;;;;;;;;;;;;;;;4902045;29;19958;-85
2022/11/08 12:03:54;;;;;;;;;;;;;;;;;;4918813;29;19923;-85
2022/11/08 12:06:27;;;;;;;;;;;;;;;;;;4918931;29;19930;-85
2022/11/08 12:08:52;;;;;;;;;;;;;;;;;;4918966;29;19963;-85
2022/11/08 12:11:36;;;;;;;;;;;;;;;;;;4918746;29;20411;-84
2022/11/08 12:14:02;;;;;;;;;;;;;;;;;;4918793;29;20005;-87
2022/11/08 12:16:43;;;;;;;;;;;;;;;;;;4901673;29;20010;-84
2022/11/08 12:19:17;;;;;;;;;;;;;;;;;;4918496;29;19926;-84
2022/11/08 12:21:43;;;;;;;;;;;;;;;;;;4918704;29;19958;-84
2022/11/08 12:24:22;;;;;;;;;;;;;;;;;;4901580;29;20022;-85
2022/11/08 12:27:07;;;;;;;;;;;;;;;;;;4918420;29;19986;-84
2022/11/08 12:30:04;;;;;;;;;;;;;;;;;;4918429;29;19923;-87
2022/11/08 12:32:50;;;;;;;;;;;;;;;;;;4886834;29;19962;-86
2022/11/08 12:35:21;;;;;;;;;;;;;;;;;;4889135;29;19926;-87
2022/11/08 12:37:55;;;;;;;;;;;;;;;;;;4918198;29;20438;-86
2022/11/08 12:40:40;;;;;;;;;;;;;;;;;;4917144;29;20363;-89
2022/11/08 12:43:13;;;;;;;;;;;;;;;;;;4918406;29;19930;-89
2022/11/08 12:45:56;;;;;;;;;;;;;;;;;;4901283;29;19919;-90
2022/11/08 12:48:31;;;;;;;;;;;;;;;;;;4916849;29;19962;-90
2022/11/08 12:51:00;;;;;;;;;;;;;;;;;;4917763;29;19927;-88
2022/11/08 12:53:47;;;;;;;;;;;;;;;;;;4918853;29;19974;-87
2022/11/08 12:56:14;;;;;;;;;;;;;;;;;;4918633;29;19923;-89
2022/11/08 12:59:00;;;;;;;;;;;;;;;;;;4917178;29;19990;-88
2022/11/08 13:01:25;;;;;;;;;;;;;;;;;;4917417;29;19923;-89
2022/11/08 13:03:56;;;;;;;;;;;;;;;;;;4919205;29;20050;-85
2022/11/08 13:06:25;;;;;;;;;;;;;;;;;;4910853;29;19919;-90
2022/11/08 13:08:57;;;;;;;;;;;;;;;;;;4902601;29;19951;-87
2022/11/08 13:11:35;;;;;;;;;;;;;;;;;;4931519;28;19931;-88
2022/11/08 13:14:00;;;;;;;;;;;;;;;;;;4936229;28;19927;-88
2022/11/08 13:16:27;;;;;;;;;;;;;;;;;;4923196;29;19955;-90
2022/11/08 13:18:54;;;;;;;;;;;;;;;;;;4921029;29;19978;-89
2022/11/08 13:21:37;;;;;;;;;;;;;;;;;;4917457;29;19946;-90
2022/11/08 13:24:06;;;;;;;;;;;;;;;;;;4907228;29;19935;-91
2022/11/08 13:26:32;;;;;;;;;;;;;;;;;;4897094;29;19919;-90
2022/11/08 13:29:16;;;;;;;;;;;;;;;;;;4884595;29;20088;-89
2022/11/08 13:31:57;;;;;;;;;;;;;;;;;;4897034;29;19975;-90
2022/11/08 13:34:26;;;;;;;;;;;;;;;;;;4898048;29;19975;-89
2022/11/08 13:37:00;;;;;;;;;;;;;;;;;;4903274;29;19952;-89
2022/11/08 13:39:45;;;;;;;;;;;;;;;;;;4898922;29;19971;-87
2022/11/08 13:42:16;;;;;;;;;;;;;;;;;;4900423;29;19923;-88
2022/11/08 13:44:54;;;;;;;;;;;;;;;;;;4899662;29;19920;-88
2022/11/08 13:47:31;;;;;;;;;;;;;;;;;;4902338;29;20018;-89
2022/11/08 13:50:15;;;;;;;;;;;;;;;;;;4910626;29;19935;-89
2022/11/08 13:52:45;;;;;;;;;;;;;;;;;;4904928;29;19974;-90
2022/11/08 13:55:29;;;;;;;;;;;;;;;;;;4903942;29;19927;-88
2022/11/08 13:57:57;;;;;;;;;;;;;;;;;;4884626;29;19984;-88
2022/11/08 14:00:33;;;;;;;;;;;;;;;;;;4903417;29;19995;-89
2022/11/08 14:03:01;;;;;;;;;;;;;;;;;;4894358;29;20206;-87
2022/11/08 14:05:27;;;;;;;;;;;;;;;;;;4894689;29;20232;-88
2022/11/08 14:08:05;;;;;;;;;;;;;;;;;;4899566;29;20403;-88
2022/11/08 14:10:47;;;;;;;;;;;;;;;;;;4880788;29;19966;-88
2022/11/08 14:13:12;;;;;;;;;;;;;;;;;;4877284;29;20368;-89
2022/11/08 14:15:57;;;;;;;;;;;;;;;;;;4901915;29;19934;-89
2022/11/08 14:18:24;;;;;;;;;;;;;;;;;;4901151;29;19934;-88
2022/11/08 14:20:51;;;;;;;;;;;;;;;;;;4901769;29;19927;-89
2022/11/08 14:23:19;;;;;;;;;;;;;;;;;;4899647;29;19931;-90
2022/11/08 14:26:05;;;;;;;;;;;;;;;;;;4905764;29;19927;-89
2022/11/08 14:28:30;;;;;;;;;;;;;;;;;;4897633;29;19927;-89
2022/11/08 14:30:57;;;;;;;;;;;;;;;;;;4904305;29;20477;-88
2022/11/08 14:33:23;;;;;;;;;;;;;;;;;;4904043;29;20438;-90
2022/11/08 14:35:57;;;;;;;;;;;;;;;;;;4900438;29;20505;-89
2022/11/08 14:38:23;;;;;;;;;;;;;;;;;;4900696;29;19923;-89
2022/11/08 14:40:50;;;;;;;;;;;;;;;;;;4903325;29;19927;-88
2022/11/08 14:43:16;;;;;;;;;;;;;;;;;;4903604;29;19975;-89
2022/11/08 14:45:42;;;;;;;;;;;;;;;;;;4899777;29;19955;-89
2022/11/08 14:48:27;;;;;;;;;;;;;;;;;;4902408;29;19923;-89
2022/11/08 14:51:00;;;;;;;;;;;;;;;;;;4900301;29;20018;-89
2022/11/08 14:53:27;;;;;;;;;;;;;;;;;;4900121;29;20439;-89
2022/11/08 14:55:55;;;;;;;;;;;;;;;;;;4904396;29;20010;-89
2022/11/08 14:58:20;;;;;;;;;;;;;;;;;;4901823;29;19931;-87
2022/11/08 15:00:47;;;;;;;;;;;;;;;;;;4901519;29;19927;-90
2022/11/08 15:03:14;;;;;;;;;;;;;;;;;;4903453;29;19930;-90
2022/11/08 15:05:46;;;;;;;;;;;;;;;;;;4905261;29;20157;-88
2022/11/08 15:08:19;;;;;;;;;;;;;;;;;;4896635;29;19931;-87
2022/11/08 15:11:03;;;;;;;;;;;;;;;;;;4894539;29;20563;-89
2022/11/08 15:13:30;;;;;;;;;;;;;;;;;;4894774;29;19919;-88
2022/11/08 15:16:00;;;;;;;;;;;;;;;;;;4897642;29;19924;-88
2022/11/08 15:18:26;;;;;;;;;;;;;;;;;;4897458;29;19971;-87
2022/11/08 15:21:15;;;;;;;;;;;;;;;;;;4899505;29;20022;-87
2022/11/08 15:23:47;;;;;;;;;;;;;;;;;;4882417;29;19967;-88
2022/11/08 15:26:26;;;;;;;;;;;;;;;;;;4897628;29;19923;-89
2022/11/08 15:28:59;;;;;;;;;;;;;;;;;;4896304;29;19927;-89
2022/11/08 15:31:27;;;;;;;;;;;;;;;;;;4895669;29;19923;-89
2022/11/08 15:33:52;;;;;;;;;;;;;;;;;;4895909;29;20420;-89
2022/11/08 15:36:23;;;;;;;;;;;;;;;;;;4897273;29;20396;-89
2022/11/08 15:38:49;;;;;;;;;;;;;;;;;;4881060;29;19986;-89
2022/11/08 15:41:23;;;;;;;;;;;;;;;;;;4898140;29;19927;-88
2022/11/08 15:43:52;;;;;;;;;;;;;;;;;;4898753;29;20343;-88
2022/11/08 15:46:25;;;;;;;;;;;;;;;;;;4897992;29;19924;-89
2022/11/08 15:48:57;;;;;;;;;;;;;;;;;;4898127;29;19978;-88
2022/11/08 15:51:26;;;;;;;;;;;;;;;;;;4897427;29;19978;-88
2022/11/08 15:53:51;;;;;;;;;;;;;;;;;;4896565;29;20447;-89
2022/11/08 15:56:17;;;;;;;;;;;;;;;;;;4899333;29;20014;-88
2022/11/08 15:58:45;;;;;;;;;;;;;;;;;;4905345;29;19919;-88
2022/11/08 16:01:18;;;;;;;;;;;;;;;;;;4905818;29;19920;-88
2022/11/08 16:03:44;;;;;;;;;;;;;;;;;;4895901;29;19919;-89
2022/11/08 16:06:12;;;;;;;;;;;;;;;;;;4902363;29;20290;-88
2022/11/08 16:08:39;;;;;;;;;;;;;;;;;;4914435;29;19930;-90
2022/11/08 16:11:04;;;;;;;;;;;;;;;;;;4916658;29;19942;-88
2022/11/08 16:13:30;;;;;;;;;;;;;;;;;;4905960;29;20319;-88
2022/11/08 16:16:07;;;;;;;;;;;;;;;;;;4898143;29;19930;-91
2022/11/08 16:18:33;;;;;;;;;;;;;;;;;;4932621;23;19934;-89
2022/11/08 16:20:59;;;;;;;;;;;;;;;;;;4917803;29;19927;-90
2022/11/08 16:23:24;;;;;;;;;;;;;;;;;;4916985;29;19935;-90
2022/11/08 16:25:50;;;;;;;;;;;;;;;;;;4913154;29;19930;-89
2022/11/08 16:28:33;;;;;;;;;;;;;;;;;;4913859;29;19923;-89
2022/11/08 16:30:59;;;;;;;;;;;;;;;;;;4914008;29;20406;-91
2022/11/08 16:33:25;;;;;;;;;;;;;;;;;;4915635;29;19966;-91
2022/11/08 16:35:52;;;;;;;;;;;;;;;;;;4914559;29;20540;-89
2022/11/08 16:38:21;;;;;;;;;;;;;;;;;;4915188;29;19927;-88
2022/11/08 16:40:46;;;;;;;;;;;;;;;;;;4920538;29;19923;-90
2022/11/08 16:43:11;;;;;;;;;;;;;;;;;;4915263;29;20261;-91
2022/11/08 16:45:38;;;;;;;;;;;;;;;;;;4915449;29;20498;-89
2022/11/08 16:48:03;;;;;;;;;;;;;;;;;;4907919;29;19934;-90
2022/11/08 16:50:29;;;;;;;;;;;;;;;;;;4902019;29;19932;-91
2022/11/08 16:52:54;;;;;;;;;;;;;;;;;;4907491;29;19923;-90
2022/11/08 16:55:20;;;;;;;;;;;;;;;;;;4907828;29;20034;-91
2022/11/08 16:57:48;;;;;;;;;;;;;;;;;;4900384;29;19927;-90
2022/11/08 17:00:16;;;;;;;;;;;;;;;;;;4895760;29;19931;-90
2022/11/08 17:02:52;;;;;;;;;;;;;;;;;;4896913;29;20511;-90
2022/11/08 17:05:19;;;;;;;;;;;;;;;;;;4903114;29;19927;-88
2022/11/08 17:07:44;;;;;;;;;;;;;;;;;;4922204;29;19915;-87
2022/11/08 17:10:17;;;;;;;;;;;;;;;;;;4922665;29;19947;-87
2022/11/08 17:12:43;;;;;;;;;;;;;;;;;;4912067;29;20427;-89
2022/11/08 17:15:16;;;;;;;;;;;;;;;;;;4911255;29;19927;-87